Terminal Aerodrome Forecast
Issued by NWS

Home | Current Version | Previous Version | Graphics & Text | Print | Product List | Glossary On
Versions: 1 2 3 4 5 6 7 8 9 10 11 12 13 14 15 16 17 18 19
583
FTUS41 KCLE 200540
TAFFDY
TAF
KFDY 200540Z 2006/2106 09006KT P6SM OVC080
     FM200800 09008KT 4SM -RA BR OVC015
     FM200900 09008KT 2SM -RA BR OVC007
     FM201300 09006KT 4SM -RA BR OVC004
     FM201600 22008KT P6SM OVC007
     FM202200 20006KT P6SM OVC015=

USA.gov is the U.S. government's official web portal to all federal, state and local government web resources and services.